首页
METAR-TAF:

METAR-TAF

机场 :

比亚埃尔莫萨, 墨西哥

纬度: 18-00N, 经度: 092-49W, 海拔: 13米

当前天气观测

该预报发布于4小时和35分钟前的02:41 UTC
静风
温度 27°C
湿度 70%
气压 1008 hPa
能見度: 11.3公里
天空无云

METAR: MMVA 050241Z 00000KT 7SM SKC 27/21 A2977 RMK SLP078 52020 957

时间: 01:16 (07:16 UTC)

预报

该预报发布于2小时和12分钟前的05:04 UTC
预报有效从05日的 06点(UTC)到 06日的 06点(UTC)
风速节,风向
能見度: 10公里
天空无云
从 05日的 1000点(UTC)
风速节,风向
能見度: 10公里
散云层高于1500英尺
短暂存在
从 05日的 11点(UTC)到 05日的 15点(UTC)
能見度: 3.2公里
多云层高于1000英尺
轻雾
从 05日的 1600点(UTC)
风速10节,风向西北
能見度: 10公里
多云层高于1500英尺
多云层高于6000英尺
从 06日的 0300点(UTC)
风速12节,风向北转西北
能見度: 6.4公里
阴天层高于1500英尺

TAF: MMVA 050504Z 0506/0606 00000KT P6SM SKC FM051000 00000KT P6SM SCT015 TEMPO 0511/0515 2SM BR BKN010 FM051600 32010KT P6SM BKN015 BKN060 FM060300 34012KT 4SM HZ OVC015

超过4000个机场的气象观测和天气预报(METAR&TAF报告)。

可查询的气象台以黄色和红色小点在地图上表示。

将鼠标移到小点上方,可查看气象台名称。

然后点击查看天气观测和预报。

如需切换地图:点击带黑十字的绿色按钮放大地图;点击带横线的绿色按钮缩小地图;或者点击绿色箭头查看邻近地区的地图。


METAR-TAF: